Time;durP1;ratioP1;P1;durP2;ratioP2;P2;SDS_P1;SDS_P2;PMS_P1;PMS_P2;Temp;Humidity;BMP_temperature;BMP_pressure;BME280_temperature;BME280_humidity;BME280_pressure;Samples;Min_cycle;Max_cycle;Signal;HPM_P1;HPM_P2
2023/09/02 00:02:21;;;;;;;29.35;20.88;;;;;;;;;;5051872;28;20381;-54
2023/09/02 00:04:47;;;;;;;28.08;19.67;;;;;;;;;;5052730;28;20082;-54
2023/09/02 00:07:13;;;;;;;28.30;20.55;;;;;;;;;;5053401;28;20029;-53
2023/09/02 00:09:39;;;;;;;28.67;20.67;;;;;;;;;;5053329;28;20013;-55
2023/09/02 00:12:06;;;;;;;27.23;19.65;;;;;;;;;;5053237;28;20017;-51
2023/09/02 00:14:32;;;;;;;28.53;20.27;;;;;;;;;;5051849;28;20021;-52
2023/09/02 00:16:58;;;;;;;29.27;20.02;;;;;;;;;;5053376;28;20090;-54
2023/09/02 00:19:25;;;;;;;28.45;19.88;;;;;;;;;;5053003;28;20555;-56
2023/09/02 00:21:50;;;;;;;28.00;18.90;;;;;;;;;;5053053;28;20033;-55
2023/09/02 00:24:16;;;;;;;31.52;20.73;;;;;;;;;;5052274;28;20154;-51
2023/09/02 00:26:42;;;;;;;28.75;19.67;;;;;;;;;;5053048;28;20061;-55
2023/09/02 00:29:08;;;;;;;28.92;20.02;;;;;;;;;;5052959;28;20037;-55
2023/09/02 00:31:34;;;;;;;31.13;19.77;;;;;;;;;;5053018;28;20052;-51
2023/09/02 00:34:00;;;;;;;32.75;20.70;;;;;;;;;;5052493;28;20685;-49
2023/09/02 00:36:27;;;;;;;30.42;19.23;;;;;;;;;;5052736;28;20033;-52
2023/09/02 00:38:53;;;;;;;30.15;20.42;;;;;;;;;;5052935;28;20500;-53
2023/09/02 00:41:26;;;;;;;35.08;24.27;;;;;;;;;;5052657;28;20025;-53
2023/09/02 00:43:53;;;;;;;36.53;30.17;;;;;;;;;;5052525;28;20101;-51
2023/09/02 00:46:19;;;;;;;42.45;31.83;;;;;;;;;;5052274;28;20109;-55
2023/09/02 00:48:45;;;;;;;38.25;31.00;;;;;;;;;;5065965;28;20107;-53
2023/09/02 00:51:11;;;;;;;39.30;34.88;;;;;;;;;;5054641;28;20052;-51
2023/09/02 00:53:37;;;;;;;43.55;33.97;;;;;;;;;;5072532;28;20611;-49
2023/09/02 00:56:03;;;;;;;41.08;36.20;;;;;;;;;;5070945;28;20093;-50
2023/09/02 00:58:29;;;;;;;44.90;38.58;;;;;;;;;;5054568;28;20051;-53
2023/09/02 01:00:56;;;;;;;46.10;39.20;;;;;;;;;;5072357;28;20104;-55
2023/09/02 01:03:22;;;;;;;43.17;38.70;;;;;;;;;;5067017;28;20592;-56
2023/09/02 01:05:48;;;;;;;49.13;40.83;;;;;;;;;;5052342;28;20109;-49
2023/09/02 01:08:18;;;;;;;52.03;42.28;;;;;;;;;;5053523;28;20509;-52
2023/09/02 01:10:45;;;;;;;53.22;45.13;;;;;;;;;;5053408;28;20025;-51
2023/09/02 01:13:11;;;;;;;55.22;43.15;;;;;;;;;;5053194;28;20032;-54
2023/09/02 01:15:37;;;;;;;58.95;45.10;;;;;;;;;;5057591;28;20472;-53
2023/09/02 01:18:03;;;;;;;56.28;42.45;;;;;;;;;;5071974;28;20044;-53
2023/09/02 01:20:40;;;;;;;55.55;42.60;;;;;;;;;;5072096;28;20400;-51
2023/09/02 01:23:29;;;;;;;52.25;42.85;;;;;;;;;;5072101;28;20111;-55
2023/09/02 01:26:01;;;;;;;60.20;45.70;;;;;;;;;;5071246;28;20039;-56
2023/09/02 01:28:29;;;;;;;58.30;45.72;;;;;;;;;;5071849;28;20021;-53
2023/09/02 01:30:55;;;;;;;53.78;42.40;;;;;;;;;;5071982;28;20047;-52
2023/09/02 01:33:22;;;;;;;56.08;43.40;;;;;;;;;;5072012;28;20340;-53
2023/09/02 01:35:49;;;;;;;54.08;43.65;;;;;;;;;;5071227;28;20032;-51
2023/09/02 01:38:15;;;;;;;62.40;44.20;;;;;;;;;;5071679;28;20229;-55
2023/09/02 01:40:43;;;;;;;55.90;44.42;;;;;;;;;;5071641;28;20033;-51
2023/09/02 01:43:11;;;;;;;65.13;45.50;;;;;;;;;;5067119;28;20036;-53
2023/09/02 01:45:37;;;;;;;56.65;44.53;;;;;;;;;;5051032;28;20115;-52
2023/09/02 01:48:04;;;;;;;55.50;43.22;;;;;;;;;;5051574;28;20035;-53
2023/09/02 01:50:31;;;;;;;55.55;45.33;;;;;;;;;;5051401;28;20032;-54
2023/09/02 01:52:58;;;;;;;61.95;45.40;;;;;;;;;;5051483;28;20327;-53
2023/09/02 01:55:24;;;;;;;62.85;46.67;;;;;;;;;;5032743;28;20116;-53
2023/09/02 01:57:50;;;;;;;62.22;45.60;;;;;;;;;;5051223;28;20113;-52
2023/09/02 02:00:16;;;;;;;64.85;45.92;;;;;;;;;;5051274;28;20028;-53
2023/09/02 02:02:42;;;;;;;62.78;46.20;;;;;;;;;;5051205;28;20128;-53
2023/09/02 02:05:13;;;;;;;56.38;44.45;;;;;;;;;;5050470;28;20104;-51
2023/09/02 02:07:42;;;;;;;61.30;46.10;;;;;;;;;;5033073;28;20055;-52
2023/09/02 02:10:11;;;;;;;61.17;45.65;;;;;;;;;;5051017;28;20462;-53
2023/09/02 02:12:41;;;;;;;53.72;45.47;;;;;;;;;;5069434;28;20036;-55
2023/09/02 02:15:10;;;;;;;61.03;46.20;;;;;;;;;;5070248;28;20125;-54
2023/09/02 02:17:37;;;;;;;59.15;46.45;;;;;;;;;;5071714;28;20413;-49
2023/09/02 02:20:03;;;;;;;58.38;44.05;;;;;;;;;;5071250;28;20046;-50
2023/09/02 02:22:29;;;;;;;62.35;46.65;;;;;;;;;;5071170;28;20051;-53
2023/09/02 02:24:55;;;;;;;57.47;46.00;;;;;;;;;;5070296;28;20028;-52
2023/09/02 02:27:22;;;;;;;62.22;45.95;;;;;;;;;;5071250;28;20024;-52
2023/09/02 02:29:48;;;;;;;61.70;46.65;;;;;;;;;;5071127;28;20820;-50
2023/09/02 02:32:13;;;;;;;67.28;47.90;;;;;;;;;;5071092;28;20025;-54
2023/09/02 02:34:39;;;;;;;66.20;47.10;;;;;;;;;;5070259;28;20443;-52
2023/09/02 02:37:05;;;;;;;74.97;48.80;;;;;;;;;;5070387;28;20055;-50
2023/09/02 02:39:31;;;;;;;68.68;48.35;;;;;;;;;;5059221;28;20029;-51
2023/09/02 02:41:57;;;;;;;63.03;47.13;;;;;;;;;;5051129;28;20381;-50
2023/09/02 02:44:23;;;;;;;78.72;51.88;;;;;;;;;;5050299;28;20079;-46
2023/09/02 02:46:49;;;;;;;73.90;51.85;;;;;;;;;;5032824;28;20075;-49
2023/09/02 02:49:15;;;;;;;73.47;48.35;;;;;;;;;;5051130;28;20048;-47
2023/09/02 02:51:41;;;;;;;61.67;47.60;;;;;;;;;;5051178;28;20104;-50
2023/09/02 02:54:07;;;;;;;57.33;46.10;;;;;;;;;;5050250;28;20044;-57
2023/09/02 02:56:33;;;;;;;53.05;45.35;;;;;;;;;;5051159;28;20029;-51
2023/09/02 02:58:59;;;;;;;53.67;45.22;;;;;;;;;;5050983;28;20104;-55
2023/09/02 03:01:26;;;;;;;51.45;44.30;;;;;;;;;;5050659;28;20370;-54
2023/09/02 03:03:52;;;;;;;50.00;43.15;;;;;;;;;;5050325;28;20422;-53
2023/09/02 03:06:18;;;;;;;55.95;44.78;;;;;;;;;;5053113;28;20135;-51
2023/09/02 03:08:45;;;;;;;50.35;42.13;;;;;;;;;;5070557;28;20092;-51
2023/09/02 03:11:11;;;;;;;51.72;42.60;;;;;;;;;;5070501;28;20027;-54
2023/09/02 03:13:37;;;;;;;53.25;43.22;;;;;;;;;;5070538;28;20099;-53
2023/09/02 03:16:04;;;;;;;53.60;44.40;;;;;;;;;;5069947;28;20028;-51
2023/09/02 03:18:30;;;;;;;57.80;45.28;;;;;;;;;;5055416;28;20025;-51
2023/09/02 03:21:02;;;;;;;58.65;46.58;;;;;;;;;;5074215;28;20397;-54
2023/09/02 03:23:28;;;;;;;53.67;44.28;;;;;;;;;;5072988;28;20019;-54
2023/09/02 03:25:54;;;;;;;54.28;45.22;;;;;;;;;;5070358;28;20104;-54
2023/09/02 03:28:20;;;;;;;50.75;44.30;;;;;;;;;;5070179;28;20056;-51
2023/09/02 03:30:46;;;;;;;55.40;45.47;;;;;;;;;;5070488;28;20034;-55
2023/09/02 03:33:14;;;;;;;53.47;44.97;;;;;;;;;;5070229;28;20036;-53
2023/09/02 03:35:40;;;;;;;;;;;;;;;;;;5069649;28;20029;-54
2023/09/02 03:38:06;;;;;;;52.38;44.35;;;;;;;;;;5070041;28;20438;-56
2023/09/02 03:40:33;;;;;;;60.17;47.00;;;;;;;;;;5068312;28;20024;-54
2023/09/02 03:43:00;;;;;;;59.55;46.65;;;;;;;;;;5070185;28;20392;-52
2023/09/02 03:45:26;;;;;;;62.53;47.05;;;;;;;;;;5069430;28;20017;-53
2023/09/02 03:47:52;;;;;;;58.13;47.80;;;;;;;;;;5069612;28;20028;-55
2023/09/02 03:50:26;;;;;;;60.22;46.35;;;;;;;;;;5053662;28;20583;-50
2023/09/02 03:52:52;;;;;;;57.67;45.40;;;;;;;;;;5053646;28;20060;-54
2023/09/02 03:55:18;;;;;;;68.07;46.90;;;;;;;;;;5052972;28;20033;-55
2023/09/02 03:57:44;;;;;;;57.28;47.42;;;;;;;;;;5053505;28;20104;-54
2023/09/02 04:00:10;;;;;;;58.85;47.65;;;;;;;;;;5053258;28;20164;-49
2023/09/02 04:02:36;;;;;;;60.15;48.35;;;;;;;;;;5053502;28;20021;-52
2023/09/02 04:05:03;;;;;;;54.65;46.38;;;;;;;;;;5052694;28;20032;-51
2023/09/02 04:07:29;;;;;;;60.33;44.72;;;;;;;;;;5063999;28;20593;-50
2023/09/02 04:09:56;;;;;;;57.08;45.97;;;;;;;;;;5073327;28;20104;-55
2023/09/02 04:12:23;;;;;;;57.75;46.22;;;;;;;;;;5073252;28;20366;-54
2023/09/02 04:14:50;;;;;;;62.35;46.10;;;;;;;;;;5072755;28;20643;-49
2023/09/02 04:17:16;;;;;;;54.10;44.83;;;;;;;;;;5073189;28;20055;-51
2023/09/02 04:19:42;;;;;;;57.03;45.30;;;;;;;;;;5073011;28;20024;-53
2023/09/02 04:22:08;;;;;;;60.13;47.17;;;;;;;;;;5057631;28;20033;-49
2023/09/02 04:24:34;;;;;;;57.03;46.58;;;;;;;;;;5052426;28;20029;-51
2023/09/02 04:27:01;;;;;;;64.78;46.05;;;;;;;;;;5052957;28;20028;-56
2023/09/02 04:29:27;;;;;;;54.63;45.70;;;;;;;;;;5053149;28;20021;-56
2023/09/02 04:31:53;;;;;;;54.45;46.05;;;;;;;;;;5053123;28;20028;-54
2023/09/02 04:34:19;;;;;;;60.83;44.58;;;;;;;;;;5034334;28;20029;-52
2023/09/02 04:36:45;;;;;;;55.33;46.70;;;;;;;;;;5052747;28;20041;-55
2023/09/02 04:39:11;;;;;;;74.38;49.58;;;;;;;;;;5052968;28;20039;-52
2023/09/02 04:41:37;;;;;;;57.88;46.22;;;;;;;;;;5047373;28;20107;-53
2023/09/02 04:44:03;;;;;;;56.58;46.38;;;;;;;;;;5072353;28;20175;-53
2023/09/02 04:46:29;;;;;;;56.70;44.20;;;;;;;;;;5072547;28;20025;-51
2023/09/02 04:48:55;;;;;;;54.20;44.53;;;;;;;;;;5072363;28;20069;-54
2023/09/02 04:51:21;;;;;;;53.00;46.83;;;;;;;;;;5054697;28;20124;-54
2023/09/02 04:53:47;;;;;;;62.08;47.72;;;;;;;;;;5072499;28;20396;-54
2023/09/02 04:56:14;;;;;;;56.20;46.42;;;;;;;;;;5071847;28;20039;-54
2023/09/02 04:58:40;;;;;;;57.53;47.22;;;;;;;;;;5053977;28;20028;-55
2023/09/02 05:01:12;;;;;;;54.40;43.97;;;;;;;;;;5061037;28;20424;-53
2023/09/02 05:03:39;;;;;;;48.75;42.97;;;;;;;;;;5052437;28;20031;-53
2023/09/02 05:06:07;;;;;;;50.70;42.97;;;;;;;;;;5051573;28;20518;-54
2023/09/02 05:08:34;;;;;;;53.83;44.70;;;;;;;;;;5052249;28;20487;-50
2023/09/02 05:11:00;;;;;;;53.03;44.60;;;;;;;;;;5052156;28;20021;-55
2023/09/02 05:13:26;;;;;;;51.22;44.13;;;;;;;;;;5052267;28;20044;-54
2023/09/02 05:15:52;;;;;;;50.33;43.90;;;;;;;;;;5033605;28;20029;-54
2023/09/02 05:18:18;;;;;;;52.10;44.03;;;;;;;;;;5052120;28;20021;-50
2023/09/02 05:20:44;;;;;;;50.60;43.08;;;;;;;;;;5043629;28;20109;-55
2023/09/02 05:23:12;;;;;;;47.83;42.80;;;;;;;;;;5073161;28;20492;-53
2023/09/02 05:25:38;;;;;;;50.67;42.95;;;;;;;;;;5072854;28;20032;-48
2023/09/02 05:28:05;;;;;;;49.58;44.17;;;;;;;;;;5072260;28;20424;-50
2023/09/02 05:30:35;;;;;;;51.97;44.25;;;;;;;;;;5053901;28;20090;-52
2023/09/02 05:33:01;;;;;;;49.28;42.83;;;;;;;;;;5071919;28;20047;-52
2023/09/02 05:35:27;;;;;;;49.58;42.05;;;;;;;;;;5053193;28;20484;-51
2023/09/02 05:37:53;;;;;;;48.95;43.03;;;;;;;;;;5071686;28;20040;-51
2023/09/02 05:40:19;;;;;;;49.70;41.95;;;;;;;;;;5071700;28;20109;-49
2023/09/02 05:42:45;;;;;;;48.50;42.40;;;;;;;;;;5071638;28;20388;-52
2023/09/02 05:45:11;;;;;;;50.17;41.97;;;;;;;;;;5070836;28;20035;-55
2023/09/02 05:47:37;;;;;;;46.67;41.67;;;;;;;;;;5072593;28;20055;-50
2023/09/02 05:50:03;;;;;;;46.42;41.45;;;;;;;;;;5071600;28;20038;-49
2023/09/02 05:52:29;;;;;;;44.33;39.53;;;;;;;;;;5071376;28;20560;-55
2023/09/02 05:54:55;;;;;;;45.90;40.95;;;;;;;;;;5070756;28;20108;-55
2023/09/02 05:57:21;;;;;;;47.30;42.42;;;;;;;;;;5071015;28;20025;-52
2023/09/02 05:59:46;;;;;;;45.30;40.42;;;;;;;;;;5071511;28;20024;-54
2023/09/02 06:02:12;;;;;;;44.53;39.85;;;;;;;;;;5071622;28;20393;-53
2023/09/02 06:04:38;;;;;;;45.28;40.55;;;;;;;;;;5068987;28;20012;-53
2023/09/02 06:07:04;;;;;;;46.50;41.75;;;;;;;;;;5071037;28;20021;-53
2023/09/02 06:09:31;;;;;;;43.83;39.25;;;;;;;;;;5071259;28;20028;-54
2023/09/02 06:11:57;;;;;;;44.15;39.55;;;;;;;;;;5070595;28;20039;-54
2023/09/02 06:14:23;;;;;;;46.58;41.60;;;;;;;;;;5062269;28;20021;-56
2023/09/02 06:16:50;;;;;;;47.78;42.67;;;;;;;;;;5050622;28;20028;-51
2023/09/02 06:19:16;;;;;;;44.33;39.73;;;;;;;;;;5050840;28;20024;-54
2023/09/02 06:21:42;;;;;;;44.75;40.17;;;;;;;;;;5051009;28;20044;-54
2023/09/02 06:24:08;;;;;;;43.35;39.00;;;;;;;;;;5032120;28;20021;-52
2023/09/02 06:26:34;;;;;;;45.05;40.05;;;;;;;;;;5033171;28;20029;-50
2023/09/02 06:29:00;;;;;;;44.10;39.63;;;;;;;;;;5050823;28;20090;-49
2023/09/02 06:31:26;;;;;;;44.58;40.03;;;;;;;;;;5051070;28;20192;-48
2023/09/02 06:33:52;;;;;;;43.35;39.05;;;;;;;;;;5050838;28;20094;-50
2023/09/02 06:36:20;;;;;;;41.58;37.33;;;;;;;;;;5050867;28;20065;-49
2023/09/02 06:38:46;;;;;;;42.20;38.07;;;;;;;;;;5032934;28;20067;-51
2023/09/02 06:41:13;;;;;;;41.45;37.45;;;;;;;;;;5050933;28;20127;-52
2023/09/02 06:43:39;;;;;;;42.28;37.83;;;;;;;;;;5050881;28;20028;-54
2023/09/02 06:46:09;;;;;;;40.00;36.00;;;;;;;;;;5050482;28;20092;-51
2023/09/02 06:48:35;;;;;;;38.33;34.35;;;;;;;;;;5050764;28;20410;-52
2023/09/02 06:51:01;;;;;;;38.17;34.22;;;;;;;;;;5050840;28;20056;-55
2023/09/02 06:53:27;;;;;;;38.33;34.33;;;;;;;;;;5050942;28;20028;-54
2023/09/02 06:55:53;;;;;;;38.50;34.60;;;;;;;;;;5049915;28;20025;-54
2023/09/02 06:58:19;;;;;;;38.83;34.83;;;;;;;;;;5050449;28;20039;-51
2023/09/02 07:00:45;;;;;;;37.40;33.17;;;;;;;;;;5050344;28;20595;-62
2023/09/02 07:03:11;;;;;;;36.90;33.03;;;;;;;;;;5032946;28;20032;-53
2023/09/02 07:05:37;;;;;;;35.45;31.75;;;;;;;;;;5050068;28;20389;-57
2023/09/02 07:08:04;;;;;;;35.63;31.60;;;;;;;;;;5032837;28;20052;-56
2023/09/02 07:10:30;;;;;;;35.55;30.25;;;;;;;;;;5050631;28;20075;-58
2023/09/02 07:12:55;;;;;;;34.03;30.25;;;;;;;;;;5050315;28;20032;-57
2023/09/02 07:15:21;;;;;;;31.20;27.80;;;;;;;;;;5049887;28;20063;-59
2023/09/02 07:17:47;;;;;;;31.98;28.58;;;;;;;;;;5050364;28;20497;-59
2023/09/02 07:20:13;;;;;;;34.42;29.80;;;;;;;;;;5050221;28;20037;-58
2023/09/02 07:22:39;;;;;;;36.47;31.08;;;;;;;;;;5052015;28;20021;-55
2023/09/02 07:25:09;;;;;;;32.50;28.65;;;;;;;;;;5053437;28;20021;-55
2023/09/02 07:27:35;;;;;;;29.70;26.48;;;;;;;;;;5053936;28;20028;-55
2023/09/02 07:30:01;;;;;;;32.05;27.88;;;;;;;;;;5054055;28;20025;-58
2023/09/02 07:32:27;;;;;;;32.15;27.52;;;;;;;;;;5036016;28;20017;-55
2023/09/02 07:34:54;;;;;;;29.30;26.15;;;;;;;;;;5035284;28;20029;-55
2023/09/02 07:37:20;;;;;;;30.10;26.90;;;;;;;;;;5053861;28;20091;-57
2023/09/02 07:39:45;;;;;;;29.65;25.80;;;;;;;;;;5054332;28;20021;-56
2023/09/02 07:42:11;;;;;;;34.20;27.08;;;;;;;;;;5054389;28;20083;-57
2023/09/02 07:44:38;;;;;;;30.75;26.00;;;;;;;;;;5053247;28;20032;-54
2023/09/02 07:47:04;;;;;;;32.17;27.75;;;;;;;;;;5053403;28;20485;-54
2023/09/02 07:49:30;;;;;;;30.55;26.42;;;;;;;;;;5053503;28;20021;-55
2023/09/02 07:51:57;;;;;;;30.90;27.52;;;;;;;;;;5053428;28;20412;-53
2023/09/02 07:54:23;;;;;;;31.58;26.08;;;;;;;;;;5052605;28;20029;-58
2023/09/02 07:56:49;;;;;;;28.20;25.15;;;;;;;;;;5053264;28;20446;-49
2023/09/02 07:59:15;;;;;;;27.33;24.17;;;;;;;;;;5053322;28;20051;-51
2023/09/02 08:01:41;;;;;;;33.00;24.13;;;;;;;;;;5035463;28;20029;-49
2023/09/02 08:04:07;;;;;;;30.90;26.27;;;;;;;;;;5035071;28;20021;-53
2023/09/02 08:06:33;;;;;;;29.77;25.05;;;;;;;;;;5053269;28;20108;-48
2023/09/02 08:08:59;;;;;;;27.73;23.73;;;;;;;;;;5053260;28;20108;-48
2023/09/02 08:11:25;;;;;;;30.20;25.02;;;;;;;;;;5053581;28;20105;-51
2023/09/02 08:13:51;;;;;;;27.33;23.73;;;;;;;;;;5053281;28;20028;-50
2023/09/02 08:16:17;;;;;;;28.73;24.20;;;;;;;;;;5047836;28;20440;-51
2023/09/02 08:18:43;;;;;;;30.13;24.70;;;;;;;;;;5033139;28;20029;-49
2023/09/02 08:21:09;;;;;;;29.80;21.98;;;;;;;;;;5033224;28;20021;-50
2023/09/02 08:23:35;;;;;;;30.05;22.50;;;;;;;;;;5018810;28;20119;-47
2023/09/02 08:26:15;;;;;;;26.73;22.67;;;;;;;;;;5052045;28;20096;-50
2023/09/02 08:28:41;;;;;;;27.95;22.67;;;;;;;;;;5052960;28;20113;-49
2023/09/02 08:31:11;;;;;;;29.83;23.13;;;;;;;;;;5052567;28;20112;-48
2023/09/02 08:33:37;;;;;;;29.63;22.20;;;;;;;;;;5052180;28;20029;-48
2023/09/02 08:36:03;;;;;;;30.33;22.20;;;;;;;;;;5052026;28;20465;-52
2023/09/02 08:38:29;;;;;;;25.85;20.67;;;;;;;;;;5052795;28;20048;-49
2023/09/02 08:40:57;;;;;;;30.02;22.33;;;;;;;;;;5052203;28;20025;-53
2023/09/02 08:43:23;;;;;;;30.65;22.23;;;;;;;;;;5051960;28;20445;-54
2023/09/02 08:45:50;;;;;;;30.15;20.15;;;;;;;;;;5051968;28;20021;-49
2023/09/02 08:48:21;;;;;;;29.08;19.73;;;;;;;;;;5052360;28;20033;-49
2023/09/02 08:50:47;;;;;;;27.15;19.08;;;;;;;;;;5053038;28;20032;-51
2023/09/02 08:53:14;;;;;;;25.20;18.35;;;;;;;;;;5051065;28;20035;-52
2023/09/02 08:55:41;;;;;;;26.80;20.73;;;;;;;;;;5051855;28;20028;-54
2023/09/02 08:58:08;;;;;;;28.38;20.42;;;;;;;;;;5052576;28;20044;-50
2023/09/02 09:00:35;;;;;;;25.45;19.40;;;;;;;;;;5052336;28;20083;-51
2023/09/02 09:03:03;;;;;;;25.15;19.58;;;;;;;;;;5052333;28;20031;-51
2023/09/02 09:05:29;;;;;;;26.35;20.40;;;;;;;;;;5051708;28;20031;-50
2023/09/02 09:07:55;;;;;;;28.50;18.60;;;;;;;;;;5052597;28;20024;-48
2023/09/02 09:10:21;;;;;;;24.55;18.35;;;;;;;;;;5052315;28;20029;-49
2023/09/02 09:12:48;;;;;;;24.58;19.15;;;;;;;;;;5052772;28;20025;-50
2023/09/02 09:15:18;;;;;;;26.70;19.80;;;;;;;;;;4692219;28;10000270;-54
2023/09/02 09:17:44;;;;;;;28.85;20.45;;;;;;;;;;5036855;28;20025;-53
2023/09/02 09:20:11;;;;;;;25.40;18.52;;;;;;;;;;5042560;28;20033;-54
2023/09/02 09:22:38;;;;;;;25.65;18.45;;;;;;;;;;5010623;28;20026;-49
2023/09/02 09:25:04;;;;;;;25.98;17.95;;;;;;;;;;5046490;28;20025;-48
2023/09/02 09:27:31;;;;;;;25.52;18.15;;;;;;;;;;5047967;28;20121;-48
2023/09/02 09:29:57;;;;;;;24.88;17.85;;;;;;;;;;5048202;28;20619;-50
2023/09/02 09:32:23;;;;;;;24.15;18.00;;;;;;;;;;5047232;28;20033;-52
2023/09/02 09:34:50;;;;;;;26.15;18.63;;;;;;;;;;5047307;28;20047;-50
2023/09/02 09:37:16;;;;;;;25.63;19.40;;;;;;;;;;5048065;28;20057;-48
2023/09/02 09:39:51;;;;;;;26.67;18.60;;;;;;;;;;5047358;28;20029;-50
2023/09/02 09:42:18;;;;;;;27.55;19.70;;;;;;;;;;5047855;28;20112;-53
2023/09/02 09:44:53;;;;;;;27.50;20.55;;;;;;;;;;5047097;28;20031;-51
2023/09/02 09:47:19;;;;;;;26.00;19.77;;;;;;;;;;5048021;28;20065;-47
2023/09/02 09:49:49;;;;;;;33.80;20.48;;;;;;;;;;5043768;28;20022;-52
2023/09/02 09:52:15;;;;;;;28.45;21.98;;;;;;;;;;5028263;28;20021;-51
2023/09/02 09:54:42;;;;;;;33.00;24.23;;;;;;;;;;5029462;28;20026;-52
2023/09/02 09:57:14;;;;;;;32.60;24.27;;;;;;;;;;5012207;28;20099;-52
2023/09/02 09:59:49;;;;;;;33.83;25.75;;;;;;;;;;5030292;28;20041;-51
2023/09/02 10:02:17;;;;;;;32.30;23.35;;;;;;;;;;5030494;28;20092;-48
2023/09/02 10:04:49;;;;;;;33.25;23.90;;;;;;;;;;5030214;28;20386;-48
2023/09/02 10:07:16;;;;;;;30.70;22.58;;;;;;;;;;5031028;28;20022;-48
2023/09/02 10:09:45;;;;;;;32.10;23.83;;;;;;;;;;5030698;28;20045;-48
2023/09/02 10:12:18;;;;;;;31.65;23.83;;;;;;;;;;5030890;28;20048;-48
2023/09/02 10:14:45;;;;;;;32.88;24.05;;;;;;;;;;5030553;28;20109;-49
2023/09/02 10:17:11;;;;;;;32.65;24.58;;;;;;;;;;5042879;28;20108;-52
2023/09/02 10:19:37;;;;;;;33.40;24.98;;;;;;;;;;5050549;28;20020;-50
2023/09/02 10:22:04;;;;;;;33.75;24.52;;;;;;;;;;5050749;28;20025;-48
2023/09/02 10:24:33;;;;;;;33.63;25.27;;;;;;;;;;4686025;28;10000335;-50
2023/09/02 10:27:01;;;;;;;37.70;27.58;;;;;;;;;;5009732;28;20025;-48
2023/09/02 10:29:31;;;;;;;36.10;27.85;;;;;;;;;;5027083;28;20059;-51
2023/09/02 10:32:03;;;;;;;37.25;25.48;;;;;;;;;;5027369;28;20488;-50
2023/09/02 10:34:35;;;;;;;35.92;26.23;;;;;;;;;;5026863;28;20045;-52
2023/09/02 10:37:05;;;;;;;36.10;26.42;;;;;;;;;;5026871;28;20044;-50
2023/09/02 10:39:37;;;;;;;34.05;25.85;;;;;;;;;;5027254;28;20017;-48
2023/09/02 10:42:04;;;;;;;35.60;26.52;;;;;;;;;;5027128;28;20104;-50
2023/09/02 10:44:30;;;;;;;33.08;25.08;;;;;;;;;;5008910;28;20057;-54
2023/09/02 10:46:57;;;;;;;39.75;27.85;;;;;;;;;;5026914;28;20426;-50
2023/09/02 10:49:23;;;;;;;34.42;25.90;;;;;;;;;;5027407;28;20029;-50
2023/09/02 10:51:51;;;;;;;37.40;26.73;;;;;;;;;;5045160;28;20052;-50
2023/09/02 10:54:17;;;;;;;36.03;25.17;;;;;;;;;;5035014;28;20041;-47
2023/09/02 10:56:43;;;;;;;35.60;27.33;;;;;;;;;;5026995;28;20092;-50
2023/09/02 10:59:10;;;;;;;33.53;25.77;;;;;;;;;;5030584;28;20758;-48
2023/09/02 11:01:45;;;;;;;36.58;26.98;;;;;;;;;;5038611;28;20029;-53
2023/09/02 11:04:11;;;;;;;33.17;25.00;;;;;;;;;;5050053;28;20817;-53
2023/09/02 11:06:37;;;;;;;34.85;27.13;;;;;;;;;;5050222;28;20029;-53
2023/09/02 11:09:03;;;;;;;35.08;26.75;;;;;;;;;;5050415;28;20035;-50
2023/09/02 11:11:48;;;;;;;34.53;26.13;;;;;;;;;;5050081;28;20119;-54
2023/09/02 11:14:17;;;;;;;37.47;27.25;;;;;;;;;;5049285;28;20037;-55
2023/09/02 11:16:44;;;;;;;32.63;25.70;;;;;;;;;;5047040;28;20086;-53
2023/09/02 11:19:11;;;;;;;33.03;24.58;;;;;;;;;;5049659;28;20025;-47
2023/09/02 11:21:41;;;;;;;34.88;26.85;;;;;;;;;;5050291;28;20021;-53
2023/09/02 11:24:16;;;;;;;35.05;27.23;;;;;;;;;;5049385;28;20021;-50
2023/09/02 11:26:51;;;;;;;36.13;27.75;;;;;;;;;;5050898;28;20052;-53
2023/09/02 11:29:24;;;;;;;36.40;27.17;;;;;;;;;;5050805;28;20091;-51
2023/09/02 11:31:56;;;;;;;34.97;25.80;;;;;;;;;;5050492;28;20025;-53
2023/09/02 11:34:23;;;;;;;32.42;24.67;;;;;;;;;;5049005;28;20062;-55
2023/09/02 11:36:51;;;;;;;35.63;26.33;;;;;;;;;;5049607;28;20155;-53
2023/09/02 11:39:17;;;;;;;32.63;25.15;;;;;;;;;;5049994;28;20045;-53
2023/09/02 11:41:43;;;;;;;33.45;25.50;;;;;;;;;;5050081;28;20028;-54
2023/09/02 11:44:12;;;;;;;31.92;25.50;;;;;;;;;;5049317;28;20076;-53
2023/09/02 11:46:39;;;;;;;35.83;26.40;;;;;;;;;;5050294;28;20032;-55
2023/09/02 11:49:23;;;;;;;35.38;26.48;;;;;;;;;;5049729;28;20373;-54
2023/09/02 11:51:49;;;;;;;33.63;25.15;;;;;;;;;;5034073;28;20017;-52
2023/09/02 11:54:16;;;;;;;32.50;24.70;;;;;;;;;;5029346;28;20022;-53
2023/09/02 11:56:42;;;;;;;32.83;25.27;;;;;;;;;;5029741;28;20048;-56
2023/09/02 11:59:23;;;;;;;31.25;24.55;;;;;;;;;;5042833;28;20081;-50
2023/09/02 12:02:08;;;;;;;35.03;24.10;;;;;;;;;;5048990;28;20660;-53
2023/09/02 12:04:37;;;;;;;32.47;24.42;;;;;;;;;;5048494;28;20040;-50
2023/09/02 12:07:03;;;;;;;30.83;23.70;;;;;;;;;;5030657;28;20070;-55
2023/09/02 12:09:30;;;;;;;30.40;24.23;;;;;;;;;;5047277;28;20520;-53
2023/09/02 12:11:57;;;;;;;32.80;22.85;;;;;;;;;;5049074;28;20454;-54
2023/09/02 12:14:23;;;;;;;33.85;24.80;;;;;;;;;;5049154;28;20033;-52
2023/09/02 12:16:49;;;;;;;29.55;22.70;;;;;;;;;;5039512;28;20038;-56
2023/09/02 12:19:15;;;;;;;31.00;23.33;;;;;;;;;;5029599;28;20040;-52
2023/09/02 12:21:41;;;;;;;30.25;22.63;;;;;;;;;;5029269;28;20033;-52
2023/09/02 12:24:07;;;;;;;28.02;21.13;;;;;;;;;;5010688;28;20033;-54
2023/09/02 12:26:44;;;;;;;28.08;22.30;;;;;;;;;;5029169;28;20036;-58
2023/09/02 12:29:21;;;;;;;29.42;23.40;;;;;;;;;;5029766;28;20096;-64
2023/09/02 12:32:05;;;;;;;26.80;21.30;;;;;;;;;;5029484;28;20398;-52
2023/09/02 12:34:34;;;;;;;30.77;24.25;;;;;;;;;;5029323;28;20028;-54
2023/09/02 12:37:19;;;;;;;27.88;22.40;;;;;;;;;;5029379;28;20018;-52
2023/09/02 12:39:46;;;;;;;27.40;22.33;;;;;;;;;;5029569;28;20017;-53
2023/09/02 12:42:15;;;;;;;25.50;21.08;;;;;;;;;;5029044;28;20037;-49
2023/09/02 12:44:51;;;;;;;27.65;23.02;;;;;;;;;;5028233;28;20078;-54
2023/09/02 12:47:18;;;;;;;27.08;22.60;;;;;;;;;;5028666;28;20092;-53
2023/09/02 12:49:44;;;;;;;26.50;22.65;;;;;;;;;;5029166;28;20125;-53
2023/09/02 12:52:23;;;;;;;28.38;23.85;;;;;;;;;;5049126;28;20078;-55
2023/09/02 12:54:59;;;;;;;26.65;22.58;;;;;;;;;;5030965;28;20028;-53
2023/09/02 12:57:26;;;;;;;27.83;23.15;;;;;;;;;;5029812;28;20648;-54
2023/09/02 12:59:52;;;;;;;26.25;22.23;;;;;;;;;;5028570;28;20401;-53
2023/09/02 13:02:19;;;;;;;26.75;23.27;;;;;;;;;;5011051;28;20033;-51
2023/09/02 13:04:45;;;;;;;27.50;21.95;;;;;;;;;;5027985;28;20022;-53
2023/09/02 13:07:11;;;;;;;26.55;21.73;;;;;;;;;;5011147;28;20039;-55
2023/09/02 13:09:39;;;;;;;34.35;22.80;;;;;;;;;;5036866;28;20451;-52
2023/09/02 13:12:05;;;;;;;;;;;;;;;;;;5045383;28;20048;-56
2023/09/02 13:14:31;;;;;;;26.45;22.40;;;;;;;;;;5047526;28;19905;-52
2023/09/02 13:16:58;;;;;;;27.33;22.67;;;;;;;;;;5046869;28;20448;-55
2023/09/02 13:19:24;;;;;;;25.17;22.27;;;;;;;;;;5048041;28;20053;-52
2023/09/02 13:21:50;;;;;;;28.85;23.67;;;;;;;;;;5048319;28;20481;-55
2023/09/02 13:24:17;;;;;;;25.83;22.40;;;;;;;;;;5047500;28;20487;-54
2023/09/02 13:26:47;;;;;;;25.17;22.00;;;;;;;;;;5047890;28;20048;-54
2023/09/02 13:29:14;;;;;;;26.35;23.13;;;;;;;;;;5048011;28;20031;-56
2023/09/02 13:31:40;;;;;;;26.58;22.15;;;;;;;;;;5049621;28;20090;-52
2023/09/02 13:34:06;;;;;;;26.15;21.10;;;;;;;;;;5050141;28;20207;-52
2023/09/02 13:36:32;;;;;;;27.58;23.17;;;;;;;;;;5049953;28;20084;-53
2023/09/02 13:38:58;;;;;;;24.63;21.67;;;;;;;;;;5048508;28;20107;-52
2023/09/02 13:41:25;;;;;;;25.98;23.17;;;;;;;;;;5032477;28;20044;-55
2023/09/02 13:43:51;;;;;;;24.20;21.60;;;;;;;;;;5050826;28;20186;-54
2023/09/02 13:46:17;;;;;;;26.92;24.02;;;;;;;;;;5050684;28;20039;-53
2023/09/02 13:48:44;;;;;;;26.05;22.73;;;;;;;;;;5051020;28;20029;-53
2023/09/02 13:51:13;;;;;;;25.50;22.77;;;;;;;;;;5039107;28;20031;-54
2023/09/02 13:53:39;;;;;;;27.10;24.30;;;;;;;;;;5031090;28;20040;-56
2023/09/02 13:56:05;;;;;;;26.00;23.33;;;;;;;;;;5012662;28;20021;-56
2023/09/02 13:58:35;;;;;;;26.35;23.65;;;;;;;;;;5031161;28;20025;-52
2023/09/02 14:01:02;;;;;;;28.30;23.88;;;;;;;;;;5031153;28;20029;-55
2023/09/02 14:03:29;;;;;;;26.65;23.95;;;;;;;;;;5031016;28;20029;-55
2023/09/02 14:05:55;;;;;;;24.35;21.90;;;;;;;;;;5030212;28;20096;-52
2023/09/02 14:08:33;;;;;;;24.50;21.90;;;;;;;;;;4680051;28;9999940;-55
2023/09/02 14:10:59;;;;;;;26.48;23.45;;;;;;;;;;5047839;28;20131;-55
2023/09/02 14:13:25;;;;;;;25.73;22.63;;;;;;;;;;5047407;28;20025;-56
2023/09/02 14:15:52;;;;;;;25.02;22.42;;;;;;;;;;5044640;28;20025;-53
2023/09/02 14:18:18;;;;;;;24.63;22.08;;;;;;;;;;5027065;28;20036;-53
2023/09/02 14:20:44;;;;;;;22.00;18.77;;;;;;;;;;5026320;28;20026;-52